Time;durP1;ratioP1;P1;durP2;ratioP2;P2;SDS_P1;SDS_P2;PMS_P1;PMS_P2;Temp;Humidity;BMP_temperature;BMP_pressure;BME280_temperature;BME280_humidity;BME280_pressure;Samples;Min_cycle;Max_cycle;Signal;HPM_P1;HPM_P2
2022/04/17 00:01:47;;;;;;;14.45;12.95;;;18.50;99.90;;;;;;5053896;28;20380;-82
2022/04/17 00:04:15;;;;;;;13.60;11.25;;;18.70;99.90;;;;;;5045499;28;20384;-83
2022/04/17 00:06:42;;;;;;;13.15;11.85;;;18.80;99.90;;;;;;5035088;28;20493;-81
2022/04/17 00:09:09;;;;;;;12.10;10.85;;;18.70;99.90;;;;;;5081352;28;20882;-79
2022/04/17 00:11:36;;;;;;;10.65;9.55;;;18.70;99.90;;;;;;5088971;28;20455;-80
2022/04/17 00:14:03;;;;;;;9.90;8.98;;;18.80;99.90;;;;;;5076319;28;20382;-81
2022/04/17 00:16:30;;;;;;;11.23;9.23;;;19.00;99.90;;;;;;5069231;28;20378;-89
2022/04/17 00:18:57;;;;;;;9.77;8.40;;;19.00;99.90;;;;;;5068718;28;20417;-83
2022/04/17 00:21:24;;;;;;;11.13;8.43;;;19.20;99.90;;;;;;5069871;28;20385;-88
2022/04/17 00:23:51;;;;;;;8.75;7.22;;;19.30;99.90;;;;;;5054835;28;20467;-84
2022/04/17 00:26:19;;;;;;;10.20;8.48;;;19.20;99.90;;;;;;5048647;28;20391;-83
2022/04/17 00:28:46;;;;;;;10.05;8.50;;;19.30;99.90;;;;;;5068702;28;20843;-83
2022/04/17 00:31:13;;;;;;;8.43;7.32;;;19.40;99.90;;;;;;5068887;28;20370;-83
2022/04/17 00:33:40;;;;;;;7.18;5.25;;;19.50;99.90;;;;;;5068599;28;20374;-84
2022/04/17 00:36:07;;;;;;;9.93;7.47;;;19.40;99.90;;;;;;5068061;28;20468;-85
2022/04/17 00:38:34;;;;;;;5.97;5.28;;;19.50;99.90;;;;;;5082942;28;20468;-84
2022/04/17 00:41:01;;;;;;;7.10;4.50;;;19.60;99.90;;;;;;5075516;28;20398;-84
2022/04/17 00:43:31;;;;;;;6.38;4.18;;;19.90;99.90;;;;;;5057504;28;20433;-84
2022/04/17 00:45:59;;;;;;;5.55;3.78;;;20.10;99.90;;;;;;5048858;28;20735;-85
2022/04/17 00:48:27;;;;;;;3.20;2.42;;;20.30;99.90;;;;;;5048423;28;20400;-83
2022/04/17 00:50:59;;;;;;;2.80;2.50;;;20.30;99.90;;;;;;5048796;28;20383;-85
2022/04/17 00:53:28;;;;;;;3.83;3.38;;;20.40;99.90;;;;;;5048745;28;20415;-81
2022/04/17 00:55:56;;;;;;;3.73;2.87;;;20.50;99.90;;;;;;5047966;28;20744;-82
2022/04/17 00:58:24;;;;;;;3.47;2.70;;;20.40;99.90;;;;;;5048524;28;21335;-82
2022/04/17 01:00:51;;;;;;;3.17;2.10;;;20.50;99.90;;;;;;5051467;28;20384;-82
2022/04/17 01:03:19;;;;;;;3.13;2.38;;;20.60;99.90;;;;;;5041147;28;20396;-80
2022/04/17 01:05:47;;;;;;;2.75;1.77;;;20.70;99.90;;;;;;5065608;28;20948;-81
2022/04/17 01:08:15;;;;;;;2.08;1.40;;;21.00;99.90;;;;;;5065066;28;21332;-81
2022/04/17 01:10:42;;;;;;;2.45;1.52;;;21.30;99.90;;;;;;5059804;28;20394;-82
2022/04/17 01:13:09;;;;;;;2.72;1.20;;;21.40;99.90;;;;;;5068795;28;20465;-82
2022/04/17 01:15:37;;;;;;;2.17;1.17;;;21.50;99.90;;;;;;5050490;28;20399;-81
2022/04/17 01:18:05;;;;;;;1.73;1.40;;;21.40;99.90;;;;;;5029714;28;20853;-83
2022/04/17 01:20:32;;;;;;;1.10;1.00;;;21.50;99.90;;;;;;5047380;28;20392;-82
2022/04/17 01:28:39;;;;;;;2.05;0.98;;;22.90;99.90;;;;;;4986819;28;20455;-83
2022/04/17 01:31:05;;;;;;;1.80;0.90;;;23.50;98.70;;;;;;4986720;28;20816;-81
2022/04/17 01:33:33;;;;;;;0.95;0.70;;;24.20;97.10;;;;;;4986794;28;20412;-83
2022/04/17 01:36:00;;;;;;;2.70;1.00;;;24.70;94.50;;;;;;4989826;28;20392;-87
2022/04/17 01:38:27;;;;;;;1.30;0.90;;;24.90;94.00;;;;;;5007412;28;20862;-88
2022/04/17 01:40:57;;;;;;;2.20;0.65;;;25.40;91.80;;;;;;5023078;28;21667;-83
2022/04/17 01:43:24;;;;;;;63.55;7.85;;;25.20;88.80;;;;;;4997512;28;20443;-83
2022/04/17 01:45:51;;;;;;;9.30;2.70;;;26.00;84.60;;;;;;4986611;28;20389;-84
2022/04/17 01:48:18;;;;;;;6.57;2.45;;;26.50;80.10;;;;;;4989365;28;20443;-83
2022/04/17 01:50:45;;;;;;;10.95;2.83;;;27.10;75.00;;;;;;4990523;28;20492;-83
2022/04/17 01:53:12;;;;;;;2.90;1.00;;;26.60;74.20;;;;;;4986397;28;20391;-84
2022/04/17 01:55:38;;;;;;;1.63;0.70;;;25.50;78.40;;;;;;4998784;28;20395;-82
2022/04/17 01:58:06;;;;;;;0.70;0.50;;;25.60;81.60;;;;;;5002690;28;20394;-83
2022/04/17 02:00:32;;;;;;;1.67;0.70;;;26.30;79.00;;;;;;4986381;28;20384;-82
2022/04/17 02:02:59;;;;;;;2.22;0.52;;;27.20;75.80;;;;;;5024928;28;20383;-82
2022/04/17 02:05:26;;;;;;;1.77;0.60;;;27.20;71.40;;;;;;5059833;28;20413;-82
2022/04/17 02:07:53;;;;;;;1.10;0.90;;;27.40;72.40;;;;;;5049203;28;20776;-82
2022/04/17 02:10:21;;;;;;;1.60;0.70;;;28.20;70.60;;;;;;5048883;28;20404;-83
2022/04/17 02:12:49;;;;;;;0.90;0.60;;;28.10;69.40;;;;;;5065354;28;20436;-84
2022/04/17 02:15:16;;;;;;;1.38;1.02;;;28.40;67.30;;;;;;5065964;28;20497;-85
2022/04/17 02:17:43;;;;;;;2.53;1.37;;;28.60;67.50;;;;;;5067245;28;20370;-82
2022/04/17 02:20:12;;;;;;;2.60;1.23;;;28.80;65.90;;;;;;5067418;28;20389;-83
2022/04/17 02:22:40;;;;;;;4.28;1.35;;;28.80;64.00;;;;;;5067314;28;20490;-82
2022/04/17 02:25:07;;;;;;;7.20;1.88;;;29.20;65.30;;;;;;5066980;28;20439;-82
2022/04/17 02:27:34;;;;;;;1.88;1.00;;;29.60;62.90;;;;;;5067106;28;20404;-82
2022/04/17 02:30:01;;;;;;;1.57;0.90;;;29.00;64.20;;;;;;5066610;28;20385;-84
2022/04/17 02:32:28;;;;;;;3.92;1.33;;;28.40;65.60;;;;;;5065076;28;20481;-85
2022/04/17 02:34:55;;;;;;;3.13;1.00;;;27.90;68.30;;;;;;5059621;28;20429;-84
2022/04/17 02:37:22;;;;;;;2.65;0.90;;;28.10;67.20;;;;;;5048708;28;20502;-85
2022/04/17 02:39:49;;;;;;;3.20;0.73;;;28.50;65.70;;;;;;5051633;28;20393;-86
2022/04/17 02:42:16;;;;;;;4.72;1.00;;;28.80;62.20;;;;;;5066900;28;20780;-86
2022/04/17 02:44:43;;;;;;;2.20;0.70;;;29.00;62.20;;;;;;5067360;28;20406;-88
2022/04/17 02:49:55;;;;;;;1.10;0.60;;;30.20;60.20;;;;;;5048413;28;20922;-81
2022/04/17 02:52:22;;;;;;;1.38;0.50;;;30.50;57.90;;;;;;5029501;28;20374;-83
2022/04/17 02:54:49;;;;;;;1.10;0.60;;;30.60;57.20;;;;;;5046928;28;20384;-83
2022/04/17 02:57:16;;;;;;;1.30;0.50;;;30.90;55.60;;;;;;5056921;28;20452;-83
2022/04/17 02:59:43;;;;;;;1.52;0.77;;;30.90;55.10;;;;;;5065820;28;20386;-83
2022/04/17 03:07:40;;;;;;;1.37;0.87;;;30.20;55.80;;;;;;5066367;28;20907;-83
2022/04/17 03:10:07;;;;;;;13.07;3.90;;;30.40;56.30;;;;;;5066865;28;20443;-83
2022/04/17 03:12:38;;;;;;;1.45;0.70;;;30.40;56.80;;;;;;5066375;28;20443;-83
2022/04/17 03:15:06;;;;;;;1.90;0.50;;;31.50;54.40;;;;;;5061220;28;20386;-83
2022/04/17 03:17:33;;;;;;;5.47;2.05;;;31.30;53.10;;;;;;5046279;28;20439;-83
2022/04/17 03:20:00;;;;;;;1.58;0.60;;;32.20;52.10;;;;;;5046582;28;20744;-82
2022/04/17 03:22:27;;;;;;;8.57;2.30;;;32.70;49.60;;;;;;5064851;28;20385;-82
2022/04/17 03:24:55;;;;;;;2.53;0.60;;;32.80;50.90;;;;;;5066519;28;20431;-83
2022/04/17 03:27:22;;;;;;;1.27;0.70;;;32.90;51.20;;;;;;5052474;28;20855;-82
2022/04/17 03:29:49;;;;;;;3.60;1.42;;;32.80;50.80;;;;;;5046465;28;20894;-82
2022/04/17 03:32:16;;;;;;;1.65;0.77;;;33.20;49.10;;;;;;5046524;28;20429;-83
2022/04/17 03:34:43;;;;;;;3.50;0.80;;;33.50;48.90;;;;;;5065516;28;20410;-83
2022/04/17 03:37:10;;;;;;;0.80;0.50;;;33.70;48.90;;;;;;5071636;28;20380;-83
2022/04/17 03:39:37;;;;;;;1.55;1.10;;;33.70;48.30;;;;;;5078683;28;20418;-83
2022/04/17 03:42:05;;;;;;;1.52;0.60;;;33.30;47.50;;;;;;5055637;28;20386;-83
2022/04/17 03:44:33;;;;;;;1.60;0.68;;;32.20;49.20;;;;;;5069465;28;20381;-82
2022/04/17 03:47:03;;;;;;;1.85;0.68;;;32.40;49.20;;;;;;5061631;28;20448;-83
2022/04/17 03:49:31;;;;;;;1.38;0.60;;;32.80;48.70;;;;;;5049605;28;20503;-82
2022/04/17 03:52:00;;;;;;;3.35;0.88;;;33.00;48.70;;;;;;5054121;28;20882;-82
2022/04/17 03:54:30;;;;;;;0.77;0.50;;;34.10;47.00;;;;;;5054950;28;20390;-83
2022/04/17 03:56:57;;;;;;;2.20;0.50;;;33.80;47.10;;;;;;5060046;28;20384;-83
2022/04/17 03:59:24;;;;;;;0.90;0.50;;;33.90;46.80;;;;;;5051289;28;20394;-83
2022/04/17 04:01:51;;;;;;;1.40;0.60;;;33.90;47.10;;;;;;5055297;28;20391;-83
2022/04/17 04:04:19;;;;;;;1.23;0.50;;;34.40;46.70;;;;;;5049370;28;20399;-83
2022/04/17 04:06:46;;;;;;;1.05;0.60;;;34.10;46.30;;;;;;5054795;28;20405;-82
2022/04/17 04:09:13;;;;;;;0.55;0.43;;;33.80;46.80;;;;;;5057502;28;20463;-81
2022/04/17 04:11:39;;;;;;;0.95;0.60;;;32.80;48.40;;;;;;5068265;28;21017;-82
2022/04/17 04:14:06;;;;;;;1.92;0.50;;;33.10;47.00;;;;;;5057663;28;20422;-82
2022/04/17 04:16:33;;;;;;;1.98;0.77;;;33.50;46.50;;;;;;5054871;28;20395;-82
2022/04/17 04:19:00;;;;;;;2.13;0.80;;;33.90;46.10;;;;;;5049452;28;20375;-82
2022/04/17 04:21:27;;;;;;;1.55;0.80;;;34.60;46.00;;;;;;5050097;28;20843;-82
2022/04/17 04:23:55;;;;;;;1.40;0.70;;;35.10;44.50;;;;;;5050822;28;20387;-82
2022/04/17 04:26:22;;;;;;;0.95;0.60;;;35.00;44.20;;;;;;5052833;28;20390;-81
2022/04/17 04:28:49;;;;;;;1.45;0.50;;;34.70;44.30;;;;;;5068943;28;20408;-83
2022/04/17 04:31:15;;;;;;;1.42;0.63;;;34.70;44.20;;;;;;5069954;28;20378;-81
2022/04/17 04:33:44;;;;;;;0.88;0.50;;;34.10;44.70;;;;;;5060832;28;20394;-83
2022/04/17 04:36:12;;;;;;;0.50;0.40;;;33.40;45.50;;;;;;5049549;28;21008;-82
2022/04/17 04:38:40;;;;;;;0.45;0.43;;;32.60;46.60;;;;;;5064289;28;20402;-82
2022/04/17 04:41:07;;;;;;;0.85;0.40;;;31.60;47.60;;;;;;5068322;28;20739;-81
2022/04/17 04:43:34;;;;;;;1.60;0.80;;;31.50;48.80;;;;;;5055199;28;20393;-82
2022/04/17 04:46:06;;;;;;;2.15;0.50;;;31.90;48.60;;;;;;5065055;28;20941;-82
2022/04/17 04:51:25;;;;;;;0.43;0.43;;;31.20;49.60;;;;;;5056307;28;20463;-83
2022/04/17 04:53:55;;;;;;;0.57;0.40;;;31.90;48.70;;;;;;5069020;28;20435;-83
2022/04/17 04:56:25;;;;;;;1.25;0.50;;;32.50;47.20;;;;;;5060803;28;20392;-83
2022/04/17 04:58:52;;;;;;;0.57;0.43;;;32.90;46.20;;;;;;5049085;28;20716;-83
2022/04/17 05:01:19;;;;;;;0.40;0.40;;;32.80;46.30;;;;;;5048871;28;20735;-83
2022/04/17 05:03:46;;;;;;;1.58;0.57;;;32.20;46.50;;;;;;5068781;28;20372;-83
2022/04/17 05:06:13;;;;;;;3.47;1.13;;;32.50;45.90;;;;;;5069643;28;20753;-82
2022/04/17 05:08:40;;;;;;;1.85;0.98;;;32.70;46.30;;;;;;5063762;28;20439;-83
2022/04/17 05:11:07;;;;;;;1.25;0.50;;;33.10;46.10;;;;;;5067047;28;20370;-83
2022/04/17 05:13:34;;;;;;;1.27;0.60;;;33.30;45.00;;;;;;5051486;28;20395;-84
2022/04/17 05:16:02;;;;;;;2.95;0.75;;;33.50;45.10;;;;;;5067118;28;20415;-83
2022/04/17 05:18:29;;;;;;;1.08;0.80;;;33.60;44.90;;;;;;5057255;28;20448;-84
2022/04/17 05:20:56;;;;;;;0.70;0.50;;;34.00;44.80;;;;;;5068614;28;20405;-84
2022/04/17 05:23:29;;;;;;;2.47;0.50;;;34.00;44.30;;;;;;5056722;28;20398;-85
2022/04/17 05:26:01;;;;;;;1.17;0.63;;;33.80;44.70;;;;;;5067690;28;20386;-83
2022/04/17 05:28:29;;;;;;;1.55;1.02;;;34.20;43.80;;;;;;5048465;28;20392;-82
2022/04/17 05:30:56;;;;;;;1.00;0.90;;;34.60;42.70;;;;;;5048103;28;20376;-83
2022/04/17 05:33:23;;;;;;;1.83;0.53;;;34.10;43.90;;;;;;5052056;28;20389;-83
2022/04/17 05:35:52;;;;;;;0.65;0.50;;;33.80;44.30;;;;;;5054582;28;20385;-83
2022/04/17 05:38:22;;;;;;;1.15;0.85;;;33.80;43.90;;;;;;5066791;28;20850;-83
2022/04/17 05:40:51;;;;;;;1.15;0.70;;;33.50;44.30;;;;;;5054390;28;20378;-83
2022/04/17 05:43:19;;;;;;;0.85;0.50;;;33.50;44.40;;;;;;5046996;28;20378;-83
2022/04/17 05:45:48;;;;;;;0.75;0.55;;;32.60;45.20;;;;;;5047639;28;20425;-84
2022/04/17 05:48:15;;;;;;;0.77;0.53;;;31.40;47.00;;;;;;5048111;28;20451;-83
2022/04/17 05:50:42;;;;;;;0.80;0.50;;;30.80;47.80;;;;;;5067800;28;20382;-83
2022/04/17 05:53:09;;;;;;;0.40;0.40;;;30.10;48.40;;;;;;5068102;28;20435;-83
2022/04/17 05:55:37;;;;;;;0.90;0.40;;;28.50;51.20;;;;;;5067854;28;20934;-82
2022/04/17 05:58:04;;;;;;;1.50;0.50;;;27.80;53.00;;;;;;5043312;28;20534;-82
2022/04/17 06:00:31;;;;;;;0.83;0.40;;;27.40;53.40;;;;;;5067625;28;20889;-83
2022/04/17 06:02:58;;;;;;;0.68;0.40;;;27.30;54.80;;;;;;5066881;28;20462;-83
2022/04/17 06:05:25;;;;;;;0.95;0.50;;;27.10;53.90;;;;;;5047734;28;20407;-83
2022/04/17 06:07:52;;;;;;;2.40;0.50;;;26.80;54.40;;;;;;5047722;28;20395;-83
2022/04/17 06:10:19;;;;;;;0.98;0.80;;;26.50;55.80;;;;;;5047758;28;20859;-81
2022/04/17 06:12:46;;;;;;;0.60;0.50;;;26.30;56.20;;;;;;5048053;28;20408;-82
2022/04/17 06:15:13;;;;;;;1.50;0.50;;;26.10;56.00;;;;;;5047189;28;20942;-83
2022/04/17 06:17:42;;;;;;;0.50;0.50;;;26.10;56.90;;;;;;5038116;28;20386;-82
2022/04/17 06:20:13;;;;;;;1.08;0.70;;;26.50;56.80;;;;;;5067644;28;20387;-82
2022/04/17 06:22:41;;;;;;;5.20;0.80;;;27.00;55.40;;;;;;5067582;28;20370;-83
2022/04/17 06:25:10;;;;;;;0.70;0.60;;;27.10;55.10;;;;;;5067232;28;20474;-82
2022/04/17 06:27:48;;;;;;;1.60;0.70;;;26.80;55.50;;;;;;5054161;28;20389;-81
2022/04/17 06:30:19;;;;;;;1.50;0.50;;;26.20;57.00;;;;;;5047075;28;20872;-82
2022/04/17 06:32:47;;;;;;;0.67;0.57;;;25.80;57.80;;;;;;5058499;28;20374;-82
2022/04/17 06:35:15;;;;;;;0.60;0.50;;;25.60;58.90;;;;;;5067522;28;20711;-82
2022/04/17 06:37:59;;;;;;;0.50;0.40;;;25.40;59.00;;;;;;5055429;28;20928;-82
2022/04/17 06:40:36;;;;;;;0.45;0.45;;;25.00;59.70;;;;;;5046961;28;20386;-84
2022/04/17 06:43:11;;;;;;;0.70;0.50;;;24.80;60.60;;;;;;5047251;28;20822;-82
2022/04/17 06:45:40;;;;;;;1.95;0.55;;;24.50;59.90;;;;;;5042773;28;20435;-82
2022/04/17 06:48:17;;;;;;;2.03;0.67;;;24.30;61.40;;;;;;5060277;28;20890;-82
2022/04/17 06:50:46;;;;;;;1.33;0.50;;;24.10;61.90;;;;;;5062380;28;20417;-83
2022/04/17 06:53:14;;;;;;;1.10;0.50;;;23.90;62.20;;;;;;5048480;28;20401;-83
2022/04/17 06:55:41;;;;;;;0.75;0.60;;;23.80;63.30;;;;;;5066900;28;20374;-83
2022/04/17 06:58:09;;;;;;;4.25;1.58;;;23.70;63.60;;;;;;5060878;28;20389;-83
2022/04/17 07:00:37;;;;;;;2.40;1.20;;;23.70;64.20;;;;;;5066873;28;20379;-83
2022/04/17 07:03:04;;;;;;;2.55;0.93;;;23.60;64.30;;;;;;5066754;28;20401;-83
2022/04/17 07:05:31;;;;;;;2.60;1.30;;;23.60;63.80;;;;;;5066592;28;20421;-83
2022/04/17 07:08:03;;;;;;;1.97;1.50;;;23.50;64.20;;;;;;5066519;28;20429;-83
2022/04/17 07:10:34;;;;;;;2.50;0.90;;;23.40;65.20;;;;;;5066672;28;20412;-82
2022/04/17 07:13:01;;;;;;;1.58;1.30;;;23.30;72.30;;;;;;5066735;28;20453;-82
2022/04/17 07:15:28;;;;;;;1.93;1.40;;;23.10;76.10;;;;;;5065789;28;20383;-81
2022/04/17 07:17:55;;;;;;;4.45;2.70;;;22.90;80.20;;;;;;5048928;28;21104;-82
2022/04/17 07:20:26;;;;;;;11.45;9.80;;;22.80;85.60;;;;;;5046678;28;20376;-82
2022/04/17 07:22:53;;;;;;;8.33;6.43;;;22.60;91.10;;;;;;5046456;28;20458;-83
2022/04/17 07:25:20;;;;;;;17.65;15.38;;;22.40;94.40;;;;;;5046787;28;20383;-83
2022/04/17 07:27:51;;;;;;;38.00;30.30;;;22.30;96.90;;;;;;5047450;28;20383;-83
2022/04/17 07:30:20;;;;;;;47.83;39.08;;;22.10;98.70;;;;;;5046526;28;20375;-83
2022/04/17 07:32:53;;;;;;;57.33;43.80;;;21.90;99.90;;;;;;5057605;28;20382;-84
2022/04/17 07:35:22;;;;;;;20.97;13.90;;;21.70;99.90;;;;;;5052952;28;20768;-82
2022/04/17 07:37:54;;;;;;;8.23;5.63;;;21.50;99.90;;;;;;5046879;28;20379;-81
2022/04/17 07:40:25;;;;;;;5.40;3.60;;;21.40;99.90;;;;;;5052439;28;20384;-82
2022/04/17 07:42:53;;;;;;;8.10;5.78;;;21.20;99.90;;;;;;5061404;28;20389;-81
2022/04/17 07:45:21;;;;;;;4.38;3.30;;;21.10;99.90;;;;;;5039409;28;20374;-82
2022/04/17 07:47:50;;;;;;;8.55;5.70;;;21.00;99.90;;;;;;5047604;28;20389;-81
2022/04/17 07:50:18;;;;;;;67.63;53.80;;;20.90;99.90;;;;;;5033561;28;20477;-83
2022/04/17 07:52:45;;;;;;;87.18;69.25;;;20.80;99.90;;;;;;5059792;28;20644;-81
2022/04/17 07:55:14;;;;;;;55.03;36.17;;;20.70;99.90;;;;;;5064953;28;20432;-82
2022/04/17 08:00:21;;;;;;;8.05;4.68;;;20.60;99.90;;;;;;5053812;28;20383;-82
2022/04/17 08:03:07;;;;;;;5.45;2.50;;;20.40;99.90;;;;;;5046370;28;20372;-82
2022/04/17 08:05:38;;;;;;;6.37;4.27;;;20.30;99.90;;;;;;5045950;28;20867;-83
2022/04/17 08:08:08;;;;;;;5.03;3.05;;;20.20;99.90;;;;;;5046014;28;20434;-82
2022/04/17 08:10:38;;;;;;;12.20;7.30;;;20.20;99.90;;;;;;5046559;28;20728;-82
2022/04/17 08:13:06;;;;;;;34.20;27.85;;;20.10;99.90;;;;;;5031984;28;20863;-83
2022/04/17 08:15:33;;;;;;;82.50;62.25;;;20.00;99.90;;;;;;5054125;28;20887;-84
2022/04/17 08:18:00;;;;;;;35.88;27.67;;;19.90;99.90;;;;;;5057203;28;20391;-83
2022/04/17 08:20:27;;;;;;;7.25;4.32;;;19.80;99.90;;;;;;5060795;28;20396;-83
2022/04/17 08:22:56;;;;;;;8.18;4.63;;;19.70;99.90;;;;;;5059425;28;20458;-82
2022/04/17 08:25:22;;;;;;;7.67;2.97;;;19.70;99.90;;;;;;5057924;28;20899;-83
2022/04/17 08:27:51;;;;;;;7.03;2.65;;;19.70;99.90;;;;;;5070841;28;20424;-82
2022/04/17 08:30:23;;;;;;;9.07;5.80;;;19.60;99.90;;;;;;5033436;28;20891;-82
2022/04/17 08:32:50;;;;;;;8.07;4.50;;;19.60;99.90;;;;;;5049602;28;20383;-83
2022/04/17 08:35:18;;;;;;;8.70;6.05;;;19.60;99.90;;;;;;5069473;28;20386;-83
2022/04/17 08:37:45;;;;;;;5.30;2.40;;;19.50;99.90;;;;;;5067307;28;20408;-83
2022/04/17 08:40:12;;;;;;;6.55;3.00;;;19.50;99.90;;;;;;5057416;28;20417;-83
2022/04/17 08:42:40;;;;;;;6.60;2.53;;;19.40;99.90;;;;;;5055499;28;20414;-83
2022/04/17 08:45:11;;;;;;;4.03;1.90;;;19.40;99.90;;;;;;5056136;28;20388;-82
2022/04/17 08:47:40;;;;;;;5.82;2.50;;;19.40;99.90;;;;;;5056240;28;20381;-83
2022/04/17 08:50:12;;;;;;;3.67;2.15;;;19.30;99.90;;;;;;5052664;28;20392;-83
2022/04/17 08:52:41;;;;;;;4.25;2.45;;;19.20;99.90;;;;;;5033001;28;20386;-81
2022/04/17 08:55:09;;;;;;;4.18;1.70;;;19.20;99.90;;;;;;5050819;28;20744;-83
2022/04/17 08:57:36;;;;;;;4.05;1.98;;;19.20;99.90;;;;;;5054139;28;20433;-83
2022/04/17 09:00:08;;;;;;;5.97;2.40;;;19.20;99.90;;;;;;5062430;28;20378;-83
2022/04/17 09:02:36;;;;;;;3.85;1.83;;;19.10;99.90;;;;;;5068977;28;20443;-82
2022/04/17 09:05:10;;;;;;;5.22;2.10;;;19.00;99.90;;;;;;5068891;28;20402;-82
2022/04/17 09:07:49;;;;;;;4.90;2.57;;;19.00;99.90;;;;;;5069159;28;20464;-83
2022/04/17 09:10:31;;;;;;;7.60;3.37;;;19.00;99.90;;;;;;5069001;28;20374;-83
2022/04/17 09:13:00;;;;;;;8.77;3.30;;;18.90;99.90;;;;;;5069011;28;20378;-83
2022/04/17 09:15:35;;;;;;;9.13;3.60;;;18.80;99.90;;;;;;5068737;28;20733;-83
2022/04/17 09:18:05;;;;;;;6.13;2.80;;;18.80;99.90;;;;;;5059436;28;20378;-83
2022/04/17 09:20:32;;;;;;;7.22;2.60;;;18.70;99.90;;;;;;5067116;28;20384;-83
2022/04/17 09:23:00;;;;;;;5.55;2.45;;;18.70;99.90;;;;;;5056935;28;20441;-83
2022/04/17 09:25:28;;;;;;;3.80;2.05;;;18.70;99.90;;;;;;5051745;28;20869;-83
2022/04/17 09:28:05;;;;;;;27.23;19.25;;;18.70;99.90;;;;;;5057235;28;20812;-82
2022/04/17 09:30:46;;;;;;;43.35;27.25;;;18.80;99.90;;;;;;5070405;28;20449;-83
2022/04/17 09:33:14;;;;;;;33.88;22.00;;;18.80;99.90;;;;;;5059740;28;20431;-82
2022/04/17 09:35:54;;;;;;;12.83;6.67;;;18.80;99.90;;;;;;5075081;28;20367;-83
2022/04/17 09:38:27;;;;;;;12.80;7.93;;;18.70;99.90;;;;;;5054211;28;20472;-85
2022/04/17 09:41:10;;;;;;;7.03;3.00;;;18.70;99.90;;;;;;5054330;28;20420;-81
2022/04/17 09:43:37;;;;;;;4.88;2.58;;;18.60;99.90;;;;;;5065914;28;20384;-83
2022/04/17 09:46:09;;;;;;;5.38;2.28;;;18.60;99.90;;;;;;5058917;28;20408;-84
2022/04/17 09:48:41;;;;;;;4.38;1.90;;;18.60;99.90;;;;;;5049877;28;20395;-85
2022/04/17 09:51:27;;;;;;;4.97;1.83;;;18.70;99.90;;;;;;5031038;28;20392;-90
2022/04/17 09:54:01;;;;;;;5.03;1.85;;;18.60;99.90;;;;;;5065415;28;20824;-84
2022/04/17 09:56:46;;;;;;;2.42;1.60;;;18.60;99.90;;;;;;5036684;28;20396;-83
2022/04/17 09:59:18;;;;;;;4.67;2.00;;;18.50;99.90;;;;;;5048272;28;20426;-83
2022/04/17 10:01:54;;;;;;;3.60;1.85;;;18.50;99.90;;;;;;5052234;28;20384;-83
2022/04/17 10:04:24;;;;;;;4.30;1.63;;;18.50;99.90;;;;;;5067666;28;20476;-83
2022/04/17 10:06:53;;;;;;;2.42;1.65;;;18.50;99.90;;;;;;5067313;28;20489;-83
2022/04/17 10:09:21;;;;;;;5.57;1.70;;;18.50;99.90;;;;;;5066777;28;20397;-82
2022/04/17 10:11:52;;;;;;;4.65;1.80;;;18.50;99.90;;;;;;5055096;28;20549;-83
2022/04/17 10:14:19;;;;;;;2.72;1.95;;;18.40;99.90;;;;;;5064734;28;20396;-82
2022/04/17 10:16:48;;;;;;;5.63;2.00;;;18.30;99.90;;;;;;5052863;28;20401;-83
2022/04/17 10:19:17;;;;;;;4.18;1.90;;;18.30;99.90;;;;;;5057339;28;20883;-83
2022/04/17 10:21:47;;;;;;;4.68;2.40;;;18.20;99.90;;;;;;5055291;28;20394;-83
2022/04/17 10:24:16;;;;;;;3.05;2.00;;;18.10;99.90;;;;;;5042276;28;20387;-83
2022/04/17 10:26:47;;;;;;;6.18;2.20;;;18.00;99.90;;;;;;5040864;28;20871;-83
2022/04/17 10:29:23;;;;;;;8.40;2.30;;;17.90;99.90;;;;;;5058668;28;20405;-83
2022/04/17 10:32:38;;;;;;;6.63;2.50;;;17.80;99.90;;;;;;5032885;28;20392;-83
2022/04/17 10:35:15;;;;;;;3.25;2.15;;;17.70;99.90;;;;;;5051934;28;20399;-82
2022/04/17 10:38:14;;;;;;;5.32;2.40;;;17.60;99.90;;;;;;5055708;28;20472;-82
2022/04/17 10:40:59;;;;;;;5.60;2.20;;;17.60;99.90;;;;;;5067139;28;20754;-83
2022/04/17 10:43:34;;;;;;;4.95;2.58;;;17.50;99.90;;;;;;5050840;28;20398;-84
2022/04/17 10:46:18;;;;;;;4.25;2.30;;;17.50;99.90;;;;;;5056785;28;20383;-83
2022/04/17 10:48:58;;;;;;;4.22;2.30;;;17.40;99.90;;;;;;5068341;28;20437;-83
2022/04/17 10:51:32;;;;;;;4.53;2.50;;;17.30;99.90;;;;;;5055170;28;20381;-83
2022/04/17 10:54:06;;;;;;;5.68;2.60;;;17.30;99.90;;;;;;5062515;28;20434;-83
2022/04/17 10:57:00;;;;;;;4.63;2.42;;;17.30;99.90;;;;;;5062512;28;20383;-83
2022/04/17 10:59:34;;;;;;;5.80;2.80;;;17.30;99.90;;;;;;5058028;28;20904;-83
2022/04/17 11:02:11;;;;;;;7.15;2.63;;;17.30;99.90;;;;;;5061137;28;20430;-83
2022/04/17 11:04:41;;;;;;;5.23;2.40;;;17.30;99.90;;;;;;5054365;28;20461;-83
2022/04/17 11:07:09;;;;;;;5.80;2.72;;;17.30;99.90;;;;;;5046152;28;20754;-83
2022/04/17 11:09:40;;;;;;;6.75;3.22;;;17.20;99.90;;;;;;5045927;28;20411;-83
2022/04/17 11:12:28;;;;;;;11.55;6.43;;;17.20;99.90;;;;;;5046281;28;20526;-83
2022/04/17 11:15:17;;;;;;;9.98;4.82;;;17.20;99.90;;;;;;5049899;28;20417;-83
2022/04/17 11:17:48;;;;;;;9.85;4.00;;;17.10;99.90;;;;;;5035582;28;20394;-83
2022/04/17 11:20:17;;;;;;;6.50;3.50;;;17.10;99.90;;;;;;5051606;28;20383;-83
2022/04/17 11:22:44;;;;;;;6.10;3.30;;;17.00;99.90;;;;;;5054344;28;20902;-82
2022/04/17 11:25:12;;;;;;;6.88;3.60;;;16.90;99.90;;;;;;5045726;28;20455;-83
2022/04/17 11:27:50;;;;;;;7.40;3.58;;;16.80;99.90;;;;;;5045804;28;20466;-83
2022/04/17 11:30:17;;;;;;;6.50;3.60;;;16.80;99.90;;;;;;5055436;28;20487;-82
2022/04/17 11:32:46;;;;;;;6.10;3.42;;;16.80;99.90;;;;;;5052068;28;20395;-83
2022/04/17 11:35:15;;;;;;;6.50;3.53;;;16.70;99.90;;;;;;5064669;28;20397;-81
2022/04/17 11:37:54;;;;;;;6.57;3.45;;;16.70;99.90;;;;;;5055764;28;20383;-82
2022/04/17 11:40:23;;;;;;;6.25;3.50;;;16.70;99.90;;;;;;5052405;28;20373;-83
2022/04/17 11:42:53;;;;;;;5.55;3.40;;;16.60;99.90;;;;;;5055929;28;20391;-83
2022/04/17 11:45:26;;;;;;;5.90;3.60;;;16.60;99.90;;;;;;5045042;28;20882;-82
2022/04/17 11:47:54;;;;;;;7.97;3.43;;;16.60;99.90;;;;;;5042607;28;20430;-82
2022/04/17 11:50:27;;;;;;;4.90;3.33;;;16.60;99.90;;;;;;5046061;28;20400;-83
2022/04/17 11:53:02;;;;;;;4.90;3.10;;;16.60;99.90;;;;;;5050124;28;20462;-82
2022/04/17 11:55:30;;;;;;;5.40;3.30;;;16.50;99.90;;;;;;5049683;28;20398;-83
2022/04/17 11:58:02;;;;;;;6.13;3.40;;;16.50;99.90;;;;;;5032277;28;20762;-81
2022/04/17 12:00:30;;;;;;;7.38;3.30;;;16.50;99.90;;;;;;5048352;28;20423;-83
2022/04/17 12:03:00;;;;;;;7.07;3.35;;;16.50;99.90;;;;;;5057449;28;20914;-83
2022/04/17 12:05:28;;;;;;;6.28;3.13;;;16.50;99.90;;;;;;4938699;28;3160114;-83
2022/04/17 12:08:06;;;;;;;6.82;3.13;;;16.50;99.90;;;;;;5050249;28;20390;-83
2022/04/17 12:10:35;;;;;;;5.30;3.10;;;16.40;99.90;;;;;;5033418;28;20950;-83
2022/04/17 12:13:21;;;;;;;7.43;3.03;;;16.40;99.90;;;;;;5050058;28;20433;-83
2022/04/17 12:16:09;;;;;;;4.70;3.00;;;16.40;99.90;;;;;;5054760;28;20778;-83
2022/04/17 12:18:36;;;;;;;5.35;2.90;;;16.40;99.90;;;;;;5069458;28;20425;-83
2022/04/17 12:21:07;;;;;;;5.97;3.00;;;16.40;99.90;;;;;;5070096;28;20377;-83
2022/04/17 12:23:34;;;;;;;4.00;2.80;;;16.30;99.90;;;;;;5067676;28;20385;-83
2022/04/17 12:26:06;;;;;;;4.43;2.80;;;16.30;99.90;;;;;;5069503;28;20439;-83
2022/04/17 12:28:33;;;;;;;5.47;2.90;;;16.80;99.90;;;;;;5069748;28;20394;-83
2022/04/17 12:31:00;;;;;;;5.30;2.60;;;16.30;99.90;;;;;;5043345;28;20398;-83
2022/04/17 12:33:29;;;;;;;4.72;2.40;;;16.30;99.90;;;;;;5069704;28;20451;-83
2022/04/17 12:36:03;;;;;;;5.00;2.50;;;16.30;99.90;;;;;;5032616;28;20398;-83
2022/04/17 12:38:30;;;;;;;5.93;2.70;;;16.30;99.90;;;;;;5050027;28;20898;-82
2022/04/17 12:40:57;;;;;;;4.57;2.40;;;16.30;99.90;;;;;;5049902;28;20441;-83
2022/04/17 12:43:32;;;;;;;4.35;2.47;;;16.20;99.90;;;;;;5068680;28;20394;-83
2022/04/17 12:46:00;;;;;;;3.70;2.50;;;16.20;99.90;;;;;;5052482;28;20434;-83
2022/04/17 12:48:35;;;;;;;4.28;2.50;;;16.20;99.90;;;;;;5052803;28;20405;-83
2022/04/17 12:51:06;;;;;;;4.60;2.17;;;16.10;99.90;;;;;;5050606;28;20388;-83
2022/04/17 12:53:40;;;;;;;5.43;2.15;;;16.20;99.90;;;;;;5062738;28;20461;-82
2022/04/17 12:56:08;;;;;;;3.72;2.10;;;16.10;99.90;;;;;;5066916;28;20382;-83
2022/04/17 12:58:53;;;;;;;3.38;1.90;;;16.10;99.90;;;;;;5063787;28;20385;-81
2022/04/17 13:01:22;;;;;;;6.18;2.20;;;16.10;99.90;;;;;;5055574;28;20382;-81
2022/04/17 13:03:50;;;;;;;6.00;1.98;;;16.10;99.90;;;;;;5050720;28;20429;-82
2022/04/17 13:06:23;;;;;;;3.20;2.00;;;16.10;99.90;;;;;;5050296;28;20508;-82
2022/04/17 13:09:03;;;;;;;3.30;2.20;;;16.00;99.90;;;;;;5049138;28;20415;-83
2022/04/17 13:11:34;;;;;;;3.78;2.10;;;16.00;99.90;;;;;;5050346;28;20384;-83
2022/04/17 13:14:02;;;;;;;3.17;2.05;;;16.00;99.90;;;;;;5051434;28;20363;-82
2022/04/17 13:16:31;;;;;;;4.63;2.10;;;16.00;99.90;;;;;;5055988;28;20415;-83
2022/04/17 13:18:59;;;;;;;3.40;2.13;;;16.00;99.90;;;;;;5050118;28;20486;-82